createdAt,value
2022-08-05T00:00:43.760Z,16.88
2022-08-05T00:05:51.670Z,16.78
2022-08-05T00:10:58.851Z,16.83
2022-08-05T00:16:07.198Z,16.72
2022-08-05T00:21:13.841Z,16.69
2022-08-05T00:26:21.031Z,16.64
2022-08-05T00:31:28.862Z,16.62
2022-08-05T00:36:37.005Z,16.42
2022-08-05T00:41:43.258Z,16.41
2022-08-05T00:46:51.101Z,16.3
2022-08-05T00:51:58.938Z,16.29
2022-08-05T00:57:06.647Z,16.28
2022-08-05T01:02:14.634Z,16.33
2022-08-05T01:07:22.413Z,16.33
2022-08-05T01:12:29.306Z,16.29
2022-08-05T01:17:37.575Z,16.16
2022-08-05T01:22:44.649Z,16.1
2022-08-05T01:27:52.092Z,16.06
2022-08-05T01:33:00.153Z,16.16
2022-08-05T01:38:08.830Z,16.07
2022-08-05T01:43:16.059Z,16.08
2022-08-05T01:48:22.614Z,16.02
2022-08-05T01:53:30.877Z,15.96
2022-08-05T01:58:37.675Z,15.93
2022-08-05T02:03:44.860Z,15.85
2022-08-05T02:08:52.026Z,15.74
2022-08-05T02:13:58.617Z,15.7
2022-08-05T02:19:06.042Z,15.64
2022-08-05T02:24:17.952Z,15.67
2022-08-05T02:29:26.484Z,15.68
2022-08-05T02:34:34.396Z,15.58
2022-08-05T02:39:43.289Z,15.56
2022-08-05T02:44:50.775Z,15.52
2022-08-05T02:49:58.675Z,15.52
2022-08-05T02:55:06.708Z,15.54
2022-08-05T03:00:15.067Z,15.47
2022-08-05T03:05:22.803Z,15.52
2022-08-05T03:10:29.976Z,15.44
2022-08-05T03:15:37.885Z,15.34
2022-08-05T03:20:45.528Z,15.35
2022-08-05T03:25:54.009Z,15.36
2022-08-05T03:31:02.437Z,15.26
2022-08-05T03:36:10.399Z,15.34
2022-08-05T03:41:19.130Z,15.42
2022-08-05T03:46:26.204Z,15.38
2022-08-05T03:51:34.010Z,15.39
2022-08-05T03:56:41.831Z,15.48
2022-08-05T04:01:48.996Z,15.54
2022-08-05T04:06:57.497Z,15.67
2022-08-05T04:12:06.339Z,16.26
2022-08-05T04:17:14.805Z,17.22
2022-08-05T04:22:21.749Z,18.23
2022-08-05T04:27:29.937Z,19.31
2022-08-05T04:32:37.660Z,20.32
2022-08-05T04:37:45.818Z,21.33
2022-08-05T04:42:53.815Z,22.28
2022-08-05T04:48:00.849Z,23.04
2022-08-05T04:53:09.875Z,23.76
2022-08-05T04:58:17.439Z,24.28
2022-08-05T05:03:25.414Z,24.64
2022-08-05T05:08:33.768Z,24.86
2022-08-05T05:13:40.700Z,24.89
2022-08-05T05:18:48.473Z,25.18
2022-08-05T05:23:55.731Z,25.42
2022-08-05T05:29:04.732Z,25.85
2022-08-05T05:34:12.265Z,26.33
2022-08-05T05:39:19.392Z,27.01
2022-08-05T05:44:27.293Z,27.52
2022-08-05T05:49:34.968Z,28.15
2022-08-05T05:54:43.285Z,28.52
2022-08-05T05:59:50.619Z,28.96
2022-08-05T06:04:57.818Z,29.62
2022-08-05T06:10:08.093Z,29.92
2022-08-05T06:15:15.447Z,30.2
2022-08-05T06:20:23.764Z,30.42
2022-08-05T06:25:31.122Z,30.72
2022-08-05T06:30:39.910Z,31.58
2022-08-05T06:35:47.415Z,32.25
2022-08-05T06:40:53.979Z,32.74
2022-08-05T06:46:01.794Z,32.7
2022-08-05T06:51:10.803Z,33.66
2022-08-05T06:56:18.894Z,34.86
2022-08-05T07:01:26.648Z,35.72
2022-08-05T07:06:34.568Z,36.61
2022-08-05T07:11:42.801Z,36.9
2022-08-05T07:16:50.528Z,36.92
2022-08-05T07:21:57.991Z,36.65
2022-08-05T07:27:07.336Z,35.71
2022-08-05T07:32:15.752Z,35.36
2022-08-05T07:37:23.350Z,35.02
2022-08-05T07:42:31.127Z,35.43
2022-08-05T07:47:39.617Z,36.47
2022-08-05T07:52:47.217Z,38.24
2022-08-05T07:58:00.370Z,39.43
2022-08-05T08:03:08.311Z,40.39
2022-08-05T08:08:16.540Z,41.02
2022-08-05T08:13:25.274Z,41.6
2022-08-05T08:18:31.943Z,41.35
2022-08-05T08:23:39.742Z,40.94
2022-08-05T08:28:47.916Z,40.71
2022-08-05T08:33:55.442Z,40.88
2022-08-05T08:39:03.899Z,40.71
2022-08-05T08:44:11.711Z,40.7
2022-08-05T08:49:20.423Z,40.54
2022-08-05T08:54:28.163Z,39.95
2022-08-05T08:59:35.919Z,39.63
2022-08-05T09:04:43.622Z,39.48
2022-08-05T09:09:50.310Z,39.18
2022-08-05T09:14:59.291Z,38.61
2022-08-05T09:20:07.370Z,38.47
2022-08-05T09:21:38.571Z,38.6
2022-08-05T09:26:44.958Z,38.76
2022-08-05T09:31:53.114Z,38.98
2022-08-05T09:37:01.218Z,39.22
2022-08-05T09:42:09.087Z,39.51
2022-08-05T09:47:16.057Z,39.54
2022-08-05T09:52:23.929Z,39.86
2022-08-05T09:57:30.625Z,40.16
2022-08-05T10:02:38.311Z,40.01
2022-08-05T10:07:45.717Z,40.66
2022-08-05T10:12:53.842Z,41.02
2022-08-05T10:18:02.338Z,41.32
2022-08-05T10:23:10.170Z,41.79
2022-08-05T10:28:17.944Z,42.22
2022-08-05T10:33:26.222Z,42.49
2022-08-05T10:38:33.176Z,42.58
2022-08-05T10:43:41.157Z,42.88
2022-08-05T10:48:49.431Z,42.7
2022-08-05T10:53:56.043Z,43.16
2022-08-05T10:59:04.410Z,43.69
2022-08-05T11:04:12.329Z,43.49
2022-08-05T11:09:18.804Z,43.78
2022-08-05T11:14:25.499Z,43.7
2022-08-05T11:19:33.503Z,43.88
2022-08-05T11:24:41.049Z,43.7
2022-08-05T11:29:50.301Z,43.96
2022-08-05T11:34:59.174Z,44.72
2022-08-05T11:40:06.085Z,44.48
2022-08-05T11:45:14.029Z,43.47
2022-08-05T11:50:22.631Z,42.76
2022-08-05T11:55:30.716Z,42.49
2022-08-05T12:00:39.222Z,42.2
2022-08-05T12:05:46.204Z,40.5
2022-08-05T12:10:54.173Z,40.97
2022-08-05T12:16:02.309Z,40.09
2022-08-05T12:21:10.929Z,40.71
2022-08-05T12:26:17.919Z,40.99
2022-08-05T12:31:26.024Z,41.4
2022-08-05T12:36:33.432Z,41.76
2022-08-05T12:41:40.699Z,41.85
2022-08-05T12:46:48.084Z,42.19
2022-08-05T12:51:55.357Z,42.38
2022-08-05T12:57:02.937Z,42.04
2022-08-05T13:02:10.644Z,41.28
2022-08-05T13:07:17.971Z,41.62
2022-08-05T13:12:25.035Z,41.66
2022-08-05T13:17:31.733Z,42.06
2022-08-05T13:22:39.966Z,42.14
2022-08-05T13:27:46.136Z,42.66
2022-08-05T13:32:53.973Z,43.43
2022-08-05T13:38:02.065Z,44.07
2022-08-05T13:43:09.012Z,44.21
2022-08-05T13:48:17.200Z,44.19
2022-08-05T13:53:25.205Z,44.49
2022-08-05T13:58:31.920Z,45.19
2022-08-05T14:03:40.145Z,45.9
2022-08-05T14:08:49.493Z,45.8
2022-08-05T14:13:57.745Z,45.7
2022-08-05T14:19:06.730Z,45.88
2022-08-05T14:24:13.726Z,45.76
2022-08-05T14:29:21.335Z,45.56
2022-08-05T14:34:28.689Z,45.33
2022-08-05T14:39:36.800Z,46.02
2022-08-05T14:44:43.730Z,47.2
2022-08-05T14:49:51.063Z,47.07
2022-08-05T14:54:58.906Z,47.14
2022-08-05T15:00:06.682Z,46.7
2022-08-05T15:05:13.225Z,46.57
2022-08-05T15:10:21.019Z,45.96
2022-08-05T15:15:28.271Z,45.0
2022-08-05T15:20:36.125Z,43.52
2022-08-05T15:25:43.901Z,42.36
2022-08-05T15:30:50.457Z,39.98
2022-08-05T15:35:57.185Z,38.5
2022-08-05T15:41:04.845Z,37.8
2022-08-05T15:46:12.690Z,37.81
2022-08-05T15:51:18.595Z,36.66
2022-08-05T15:56:24.543Z,35.83
2022-08-05T16:01:32.087Z,35.02
2022-08-05T16:06:39.102Z,34.61
2022-08-05T16:11:46.775Z,34.26
2022-08-05T16:16:54.430Z,34.2
2022-08-05T16:22:02.719Z,34.22
2022-08-05T16:27:11.340Z,34.2
2022-08-05T16:32:18.094Z,34.02
2022-08-05T16:37:25.526Z,33.72
2022-08-05T16:42:33.443Z,33.48
2022-08-05T16:47:41.119Z,33.29
2022-08-05T16:52:47.839Z,33.08
2022-08-05T16:57:55.288Z,32.88
2022-08-05T17:03:02.791Z,32.44
2022-08-05T17:08:09.932Z,32.02
2022-08-05T17:13:17.029Z,31.64
2022-08-05T17:18:23.989Z,31.34
2022-08-05T17:23:31.644Z,31.01
2022-08-05T17:28:38.634Z,30.7
2022-08-05T17:33:46.394Z,30.39
2022-08-05T17:38:53.601Z,30.14
2022-08-05T17:44:00.853Z,29.88
2022-08-05T17:49:08.054Z,29.56
2022-08-05T17:54:15.891Z,29.2
2022-08-05T17:59:23.737Z,28.88
2022-08-05T18:04:30.936Z,28.64
2022-08-05T18:09:38.187Z,28.52
2022-08-05T18:15:23.801Z,28.21
2022-08-05T18:20:32.194Z,28.04
2022-08-05T18:25:40.569Z,27.94
2022-08-05T18:30:49.034Z,27.89
2022-08-05T18:35:56.600Z,27.73
2022-08-05T18:41:04.879Z,27.58
2022-08-05T18:46:19.091Z,27.28
2022-08-05T18:51:27.102Z,27.08
2022-08-05T18:56:35.351Z,26.96
2022-08-05T19:01:43.282Z,26.88
2022-08-05T19:06:51.497Z,26.79
2022-08-05T19:11:58.937Z,27.02
2022-08-05T19:17:06.754Z,27.02
2022-08-05T19:22:15.071Z,27.04
2022-08-05T19:27:22.506Z,27.58
2022-08-05T19:32:30.323Z,28.16
2022-08-05T19:37:38.328Z,28.22
2022-08-05T19:42:46.647Z,28.1
2022-08-05T19:56:24.694Z,27.9
2022-08-05T20:01:32.808Z,27.76
2022-08-05T20:06:39.622Z,27.4
2022-08-05T20:11:47.285Z,27.18
2022-08-05T20:16:54.647Z,27.04
2022-08-05T20:22:01.984Z,26.84
2022-08-05T20:27:09.635Z,26.64
2022-08-05T20:32:17.499Z,26.35
2022-08-05T20:37:25.538Z,26.14
2022-08-05T20:42:33.747Z,26.04
2022-08-05T20:47:42.730Z,26.14
2022-08-05T20:52:56.501Z,26.07
2022-08-05T20:58:04.438Z,25.93
2022-08-05T21:03:12.224Z,25.99
2022-08-05T21:08:19.423Z,25.88
2022-08-05T21:13:26.687Z,25.8
2022-08-05T21:18:35.604Z,25.8
2022-08-05T21:23:44.087Z,25.76
2022-08-05T21:28:51.416Z,25.69
2022-08-05T21:33:58.619Z,25.67
2022-08-05T21:39:08.063Z,25.56
2022-08-05T21:44:16.557Z,25.61
2022-08-05T21:49:24.091Z,25.62
2022-08-05T21:54:31.477Z,25.7
2022-08-05T21:59:38.217Z,25.66
2022-08-05T22:04:45.126Z,25.62
2022-08-05T22:09:51.834Z,25.52
2022-08-05T22:14:59.920Z,25.52
2022-08-05T22:20:07.292Z,25.46
2022-08-05T22:25:15.609Z,25.46
2022-08-05T22:30:21.694Z,25.3
2022-08-05T22:35:29.527Z,25.6
2022-08-05T22:40:37.270Z,25.79
2022-08-05T22:45:45.888Z,25.67
2022-08-05T22:50:54.868Z,25.64
2022-08-05T22:56:01.747Z,25.58
2022-08-05T23:01:08.721Z,25.43
2022-08-05T23:06:16.538Z,25.18
2022-08-05T23:11:24.563Z,25.01
2022-08-05T23:16:32.240Z,24.89
2022-08-05T23:21:38.999Z,24.78
2022-08-05T23:26:46.903Z,24.56
2022-08-05T23:31:53.211Z,24.44
2022-08-05T23:37:01.138Z,24.54
2022-08-05T23:42:09.359Z,24.56
2022-08-05T23:47:16.425Z,24.51
2022-08-05T23:52:22.953Z,24.53
2022-08-05T23:57:31.394Z,24.36
